Broaddus, Texas
Current Conditions -  °F | °C
As of 6:53 PM on Tuesday 27 Jan 2015 (Local Time) from KLFK Reporting Station
Clear Clear  
Wind Chill: 15°   Ceiling: Unl
Heat Index: 15°   Visibility: 10mi
Dew Point:   Wind: 3mph
Humidity: 67%   Direction: 70°ENE
Pressure: 30.13"   Gusts: NA
Location:  31.31°N, 94.27°W
Report Text: KLFK 280053Z AUTO 07003KT 10SM CLR 15/09 A3013 RMK AO2 SLP200 T01500089
Loading
Personal Weather Stations






























Interactive Weather Map New forecast layout! Learn more

10-Day Weather Forecast

Advertisements
Track Severe Weather on mobile